Time;durP1;ratioP1;P1;durP2;ratioP2;P2;SDS_P1;SDS_P2;PMS_P1;PMS_P2;Temp;Humidity;BMP_temperature;BMP_pressure;BME280_temperature;BME280_humidity;BME280_pressure;Samples;Min_cycle;Max_cycle;Signal;HPM_P1;HPM_P2
2022/08/11 00:01:09;;;;;;;;;8.00;8.00;;;;;26.14;30.42;101026.81;4974063;28;45526;-74
2022/08/11 00:03:40;;;;;;;;;8.50;6.75;;;;;26.10;30.42;101020.78;4975112;28;45648;-75
2022/08/11 00:06:07;;;;;;;;;8.25;8.25;;;;;26.10;30.37;101028.03;4975297;28;45355;-74
2022/08/11 00:11:18;;;;;;;;;10.75;10.75;;;;;26.04;30.08;101027.53;4975273;28;45430;-77
2022/08/11 00:13:47;;;;;;;;;10.00;9.75;;;;;26.04;30.37;101026.69;4974033;28;45573;-76
2022/08/11 00:16:24;;;;;;;;;11.25;7.75;;;;;26.03;30.41;101028.50;4974205;28;45523;-76
2022/08/11 00:18:54;;;;;;;;;8.25;7.75;;;;;25.97;29.93;101028.97;4965520;28;45440;-77
2022/08/11 00:21:22;;;;;;;;;11.25;9.25;;;;;25.93;30.45;101019.34;4975029;28;45516;-76
2022/08/11 00:23:59;;;;;;;;;11.00;8.00;;;;;25.94;30.46;101026.50;4979357;28;45376;-75
2022/08/11 00:26:26;;;;;;;;;8.50;8.50;;;;;25.90;30.08;101019.59;4974868;28;45583;-75
2022/08/11 00:28:52;;;;;;;;;8.25;8.25;;;;;25.84;29.93;101012.81;4974419;28;45529;-76
2022/08/11 00:31:25;;;;;;;;;10.25;8.75;;;;;25.89;30.48;101023.28;4975374;28;45396;-75
2022/08/11 00:33:51;;;;;;;;;8.25;7.25;;;;;25.82;29.91;101022.03;4982680;28;45487;-75
2022/08/11 00:36:18;;;;;;;;;7.00;7.00;;;;;25.81;30.06;101025.72;4995305;28;45320;-74
2022/08/11 00:38:48;;;;;;;;;7.75;7.75;;;;;25.83;29.84;101023.78;4983467;28;45559;-75
2022/08/11 00:41:38;;;;;;;;;7.25;6.75;;;;;25.80;30.18;101019.44;4975022;28;45383;-74
2022/08/11 00:44:12;;;;;;;;;8.75;8.00;;;;;25.81;30.37;101036.53;4974791;28;45292;-76
2022/08/11 00:47:32;;;;;;;;;8.50;8.50;;;;;25.77;30.22;101033.22;4974674;28;46553;-76
2022/08/11 00:50:22;;;;;;;;;7.00;7.00;;;;;25.75;29.91;101028.91;4894396;29;45406;-75
2022/08/11 00:53:10;;;;;;;;;10.00;8.25;;;;;25.70;30.10;101035.53;4894642;29;45588;-75
2022/08/11 00:55:53;;;;;;;;;9.75;7.75;;;;;25.67;29.75;101024.94;4868436;29;45716;-75
2022/08/11 00:58:36;;;;;;;;;10.50;8.00;;;;;25.65;29.65;101028.75;4895119;29;45403;-75
2022/08/11 01:01:19;;;;;;;;;6.50;6.50;;;;;25.61;29.84;101025.41;4894263;29;45577;-75
2022/08/11 01:04:22;;;;;;;;;9.00;9.00;;;;;25.64;30.54;101025.16;4893725;28;45611;-75
2022/08/11 01:06:53;;;;;;;;;7.25;7.25;;;;;25.59;29.90;101027.38;4894863;29;45450;-75
2022/08/11 01:09:43;;;;;;;;;8.50;7.25;;;;;25.48;29.54;101011.13;4910649;28;48230;-76
2022/08/11 01:12:20;;;;;;;;;7.00;6.00;;;;;25.56;29.84;101027.59;4894782;29;45438;-75
2022/08/11 01:15:33;;;;;;;;;7.75;6.50;;;;;25.53;29.72;101022.44;4894671;29;45500;-75
2022/08/11 01:18:37;;;;;;;;;7.75;7.50;;;;;25.49;29.85;101023.63;4856551;29;45587;-75
2022/08/11 01:21:37;;;;;;;;;7.00;7.00;;;;;25.47;29.89;101025.59;4911603;28;46451;-77
2022/08/11 01:24:33;;;;;;;;;12.75;7.50;;;;;25.45;30.60;101016.75;4946263;28;45413;-76
2022/08/11 01:27:20;;;;;;;;;8.25;8.25;;;;;25.41;30.65;101017.97;4952368;28;45623;-75
2022/08/11 01:30:07;;;;;;;;;7.00;7.00;;;;;25.39;30.52;101028.91;4951193;28;45753;-76
2022/08/11 01:33:10;;;;;;;;;9.75;9.25;;;;;25.35;30.77;101024.69;4932063;28;45641;-76
2022/08/11 01:36:09;;;;;;;;;7.00;7.00;;;;;25.31;30.59;101024.06;4932624;28;45461;-76
2022/08/11 01:38:56;;;;;;;;;7.00;7.00;;;;;25.28;31.29;101026.97;4933236;28;45471;-77
2022/08/11 01:44:37;;;;;;;;;5.75;5.75;;;;;25.16;31.35;101023.34;4914086;28;45522;-76
2022/08/11 01:50:20;;;;;;;;;7.00;6.50;;;;;25.10;31.91;101020.22;4913667;28;45532;-75
2022/08/11 01:52:48;;;;;;;;;6.50;6.00;;;;;25.07;32.06;101025.84;4939477;28;45774;-76
2022/08/11 01:55:25;;;;;;;;;7.00;7.00;;;;;25.01;31.56;101021.78;4985889;28;46145;-74
2022/08/11 01:58:38;;;;;;;;;9.25;9.25;;;;;25.01;32.14;101025.34;4993420;28;45396;-73
2022/08/11 02:01:19;;;;;;;;;11.00;10.00;;;;;24.98;32.26;101028.25;4983748;28;45375;-74
2022/08/11 02:04:16;;;;;;;;;10.50;9.50;;;;;24.94;32.41;101020.50;4975148;28;45422;-73
2022/08/11 02:06:57;;;;;;;;;8.75;8.75;;;;;24.90;31.76;101010.88;4973627;28;45454;-74
2022/08/11 02:09:44;;;;;;;;;10.25;9.25;;;;;24.87;32.27;101022.81;4973649;28;45406;-74
2022/08/11 02:12:25;;;;;;;;;11.50;10.50;;;;;24.81;32.36;101024.09;4972939;28;45365;-74
2022/08/11 02:15:16;;;;;;;;;8.25;8.25;;;;;24.77;32.38;101011.78;4954082;28;45491;-73
2022/08/11 02:17:57;;;;;;;;;9.00;9.00;;;;;24.73;33.25;101017.53;4962139;28;46115;-74
2022/08/11 02:26:22;;;;;;;;;11.25;10.25;;;;;24.60;33.21;101018.41;4973038;28;45311;-74
2022/08/11 02:28:55;;;;;;;;;8.50;8.50;;;;;24.56;33.12;101024.97;4972302;28;47217;-74
2022/08/11 02:34:31;;;;;;;;;8.50;8.00;;;;;24.49;33.40;101021.00;4972459;28;45388;-74
2022/08/11 02:36:56;;;;;;;;;10.25;10.25;;;;;24.46;33.81;101021.19;4973955;28;45422;-75
2022/08/11 02:39:30;;;;;;;;;11.75;10.00;;;;;24.44;33.35;101023.16;4975903;28;45521;-74
2022/08/11 02:42:39;;;;;;;;;10.75;10.00;;;;;24.39;33.78;101022.63;4976417;28;45374;-73
2022/08/11 02:45:16;;;;;;;;;11.25;11.00;;;;;24.37;33.79;101021.84;4974285;28;45454;-74
2022/08/11 02:51:09;;;;;;;;;9.00;9.00;;;;;24.21;33.76;101008.59;4957247;28;45702;-75
2022/08/11 02:53:50;;;;;;;;;9.75;9.75;;;;;24.23;33.82;101021.03;4967609;28;45380;-74
2022/08/11 02:56:43;;;;;;;;;9.25;9.25;;;;;24.18;34.12;101017.78;4976032;28;45411;-73
2022/08/11 03:02:36;;;;;;;;;11.75;11.75;;;;;24.11;34.37;101017.34;4975785;28;45901;-73
2022/08/11 03:05:22;;;;;;;;;10.75;10.75;;;;;24.06;34.57;101011.38;4975219;28;45460;-73
2022/08/11 03:08:17;;;;;;;;;10.00;10.00;;;;;24.03;34.82;101017.00;4976270;28;45379;-73
2022/08/11 03:17:22;;;;;;;;;9.00;9.00;;;;;23.87;34.52;101017.22;4976029;28;45478;-73
2022/08/11 03:20:29;;;;;;;;;9.00;9.00;;;;;23.87;34.46;101014.53;4975607;28;45466;-73
2022/08/11 03:23:11;;;;;;;;;11.50;10.25;;;;;23.83;34.63;101010.25;4916141;28;45509;-73
2022/08/11 03:25:53;;;;;;;;;9.50;7.75;;;;;23.78;34.53;101012.44;4913710;28;45357;-74
2022/08/11 03:28:23;;;;;;;;;8.25;8.25;;;;;23.78;34.58;101012.44;4899239;28;45426;-73
2022/08/11 03:31:14;;;;;;;;;8.50;8.25;;;;;23.76;34.76;101014.34;4915538;28;45542;-74
2022/08/11 03:34:03;;;;;;;;;7.50;7.50;;;;;23.72;34.77;101015.56;4914586;28;45507;-72
2022/08/11 03:36:59;;;;;;;;;9.25;9.25;;;;;23.69;34.79;101010.38;4914055;28;46141;-74
2022/08/11 03:39:53;;;;;;;;;8.00;8.00;;;;;23.68;34.56;101009.47;4895758;29;45441;-74
2022/08/11 03:42:36;;;;;;;;;4.50;4.50;;;;;23.67;34.78;101012.28;4896877;28;45441;-74
2022/08/11 03:45:11;;;;;;;;;10.00;8.75;;;;;23.62;34.29;101006.34;4914180;28;45408;-76
2022/08/11 03:48:13;;;;;;;;;9.50;8.00;;;;;23.59;34.48;101011.00;4914990;28;45674;-75
2022/08/11 03:50:54;;;;;;;;;9.00;9.00;;;;;23.62;34.70;101011.75;4914632;28;45528;-75
2022/08/11 03:53:32;;;;;;;;;8.25;8.25;;;;;23.59;34.43;101013.69;4936956;28;45425;-75
2022/08/11 03:56:28;;;;;;;;;9.00;8.50;;;;;23.55;34.66;101014.88;4975153;28;45500;-76
2022/08/11 03:59:29;;;;;;;;;9.50;9.50;;;;;23.55;34.70;101009.47;4973867;28;47716;-75
2022/08/11 04:02:43;;;;;;;;;6.75;6.25;;;;;23.50;34.79;101013.44;4896462;29;46594;-76
2022/08/11 04:05:29;;;;;;;;;10.00;10.00;;;;;23.46;34.58;101002.00;4839921;29;45536;-76
2022/08/11 04:08:26;;;;;;;;;11.00;10.00;;;;;23.39;34.65;101001.53;4838901;29;45547;-75
2022/08/11 04:11:09;;;;;;;;;9.00;9.00;;;;;23.38;34.99;101012.41;4838399;29;45631;-75
2022/08/11 04:17:18;;;;;;;;;9.00;9.00;;;;;23.35;34.95;101007.25;4840914;29;45806;-75
2022/08/11 04:19:53;;;;;;;;;10.25;10.25;;;;;23.33;34.70;101009.19;4828369;29;45575;-76
2022/08/11 04:22:37;;;;;;;;;9.00;9.00;;;;;23.31;34.12;101017.38;4839510;29;46903;-75
2022/08/11 04:25:11;;;;;;;;;9.25;9.25;;;;;23.30;34.74;101010.25;4839246;29;45361;-75
2022/08/11 04:27:57;;;;;;;;;10.00;9.00;;;;;23.29;35.09;101019.31;4838215;29;45438;-75
2022/08/11 04:30:50;;;;;;;;;9.25;6.50;;;;;23.33;34.41;101017.28;4839727;29;45388;-75
2022/08/11 04:34:05;;;;;;;;;8.50;8.50;;;;;23.28;34.52;101014.88;4845832;29;45542;-76
2022/08/11 04:39:48;;;;;;;;;10.00;9.00;;;;;23.31;34.48;101017.38;4868324;29;45572;-76
2022/08/11 04:45:50;;;;;;;;;9.00;7.00;;;;;23.39;34.74;101019.56;4975238;28;45877;-76
2022/08/11 05:05:29;;;;;;;;;9.50;9.50;;;;;25.33;32.23;101011.28;4974331;28;45491;-75
2022/08/11 05:07:17;;;;;;;;;7.50;7.50;;;;;25.86;31.57;101015.41;4973909;28;45495;-75
2022/08/11 05:09:56;;;;;;;;;10.00;8.50;;;;;26.36;30.70;101010.59;4968989;28;46605;-75
2022/08/11 05:12:42;;;;;;;;;11.00;9.50;;;;;26.80;30.27;101017.97;4988958;28;45578;-76
2022/08/11 05:35:47;;;;;;;;;7.75;7.75;;;;;31.07;24.33;101022.19;4993896;28;45476;-75
2022/08/11 05:57:53;;;;;;;;;8.75;8.75;;;;;34.95;19.60;101036.09;4973975;28;45436;-74
2022/08/11 06:00:19;;;;;;;;;9.75;9.75;;;;;35.38;19.34;101036.53;4972823;28;45424;-74
2022/08/11 06:02:54;;;;;;;;;10.25;9.25;;;;;35.45;18.50;101034.75;4973674;28;45345;-74
2022/08/11 06:05:20;;;;;;;;;11.25;9.75;;;;;35.95;19.12;101031.63;4993139;28;45510;-74
2022/08/11 06:07:48;;;;;;;;;8.50;8.50;;;;;36.23;18.28;101029.94;4992380;28;45383;-74
2022/08/11 06:10:25;;;;;;;;;9.00;9.00;;;;;36.18;17.96;101032.38;4992709;28;45553;-75
2022/08/11 06:12:54;;;;;;;;;8.00;8.00;;;;;36.50;17.55;101030.31;4982846;28;45476;-74
2022/08/11 06:15:20;;;;;;;;;7.00;7.00;;;;;36.67;17.70;101008.09;4996550;28;45386;-74
2022/08/11 06:17:47;;;;;;;;;9.50;9.50;;;;;36.95;17.06;101031.16;4997121;28;45396;-73
2022/08/11 06:20:15;;;;;;;;;7.25;7.25;;;;;37.65;17.82;101034.22;4996358;28;45465;-74
2022/08/11 06:22:46;;;;;;;;;5.50;5.50;;;;;38.33;17.89;101033.72;4998632;28;45463;-74
2022/08/11 06:25:14;;;;;;;;;7.25;7.25;;;;;38.19;16.31;101030.03;4956717;28;46267;-75
2022/08/11 06:27:42;;;;;;;;;8.75;8.75;;;;;37.84;16.40;101038.22;4988229;28;45457;-75
2022/08/11 06:30:17;;;;;;;;;7.50;7.50;;;;;37.24;16.73;101039.56;4957583;28;45443;-76
2022/08/11 06:32:44;;;;;;;;;13.00;11.00;;;;;37.10;16.81;101031.09;4966417;28;45523;-77
2022/08/11 06:35:25;;;;;;;;;7.50;7.50;;;;;36.95;16.73;101047.66;4995673;28;46000;-76
2022/08/11 06:38:20;;;;;;;;;8.00;8.00;;;;;36.83;17.17;101040.94;4979755;28;45391;-75
2022/08/11 06:43:53;;;;;;;;;7.50;6.25;;;;;38.33;17.02;101030.13;4982172;28;45524;-76
2022/08/11 06:46:28;;;;;;;;;7.50;6.50;;;;;38.27;15.73;101017.97;4992307;28;46278;-76
2022/08/11 06:48:55;;;;;;;;;8.25;7.25;;;;;38.38;16.07;101039.47;4976284;28;45529;-75
2022/08/11 06:51:21;;;;;;;;;9.00;9.00;;;;;38.66;16.42;101035.84;4976390;28;45395;-75
2022/08/11 06:53:52;;;;;;;;;7.25;7.25;;;;;38.69;15.34;101048.34;4974715;28;45411;-76
2022/08/11 07:02:14;;;;;;;;;7.75;7.00;;;;;39.54;15.64;101034.16;4976379;28;45317;-76
2022/08/11 07:04:52;;;;;;;;;5.25;5.25;;;;;39.92;15.59;101041.84;4979989;28;45528;-77
2022/08/11 07:16:41;;;;;;;;;8.25;8.25;;;;;40.50;14.88;101047.53;4943564;28;45454;-73
2022/08/11 07:30:17;;;;;;;;;7.00;7.00;;;;;41.27;14.01;101048.69;4932251;28;45548;-76
2022/08/11 07:32:49;;;;;;;;;7.00;7.00;;;;;41.21;14.03;101036.56;4933885;28;45558;-74
2022/08/11 07:35:19;;;;;;;;;6.25;6.25;;;;;41.05;14.00;101028.81;4932684;28;45465;-75
2022/08/11 07:37:52;;;;;;;;;5.50;4.50;;;;;40.98;13.76;101038.00;4933333;28;45459;-77
2022/08/11 07:40:22;;;;;;;;;5.50;5.50;;;;;41.35;14.58;101037.38;4933348;28;46110;-75
2022/08/11 07:42:49;;;;;;;;;5.75;5.75;;;;;41.31;14.06;101038.88;4933904;28;45596;-75
2022/08/11 07:53:30;;;;;;;;;4.75;4.75;;;;;41.36;13.53;101050.13;4979414;28;45565;-74
2022/08/11 07:55:59;;;;;;;;;5.50;5.25;;;;;41.39;14.38;101038.59;4984022;28;45397;-73
2022/08/11 08:17:58;;;;;;;;;6.25;5.75;;;;;43.28;13.94;101023.31;4963441;28;45419;-74
2022/08/11 08:20:30;;;;;;;;;4.75;4.75;;;;;43.52;13.60;101037.31;4977194;28;45561;-75
2022/08/11 08:22:58;;;;;;;;;5.00;5.00;;;;;43.53;12.75;101036.22;4974787;28;46468;-76
2022/08/11 08:25:32;;;;;;;;;5.00;5.00;;;;;43.30;12.66;101031.44;4974192;28;45490;-77
2022/08/11 08:27:59;;;;;;;;;5.00;4.00;;;;;43.44;12.73;101032.97;4964663;28;45505;-75
2022/08/11 08:30:48;;;;;;;;;6.00;6.00;;;;;43.61;14.37;101030.31;4981339;28;45630;-76
2022/08/11 08:33:19;;;;;;;;;3.50;3.50;;;;;43.53;13.51;101033.44;4984625;28;45407;-75
2022/08/11 08:35:46;;;;;;;;;5.00;5.00;;;;;43.62;12.77;101028.38;4976515;28;45358;-76
2022/08/11 08:38:16;;;;;;;;;6.00;6.00;;;;;43.51;12.53;101032.84;4989544;28;45371;-76
2022/08/11 08:40:59;;;;;;;;;6.50;6.50;;;;;43.28;12.93;101031.66;4984562;28;45367;-76
2022/08/11 08:43:25;;;;;;;;;5.00;5.00;;;;;43.31;13.21;101027.56;4982617;28;47356;-76
2022/08/11 08:45:54;;;;;;;;;6.50;4.50;;;;;43.32;12.75;101018.13;4979076;28;45485;-76
2022/08/11 08:48:24;;;;;;;;;5.00;4.75;;;;;43.56;12.80;101027.38;4980336;28;45546;-75
2022/08/11 08:53:45;;;;;;;;;4.00;4.00;;;;;43.56;12.75;101021.81;4979406;28;45810;-76
2022/08/11 08:56:10;;;;;;;;;3.75;3.75;;;;;43.88;15.25;101029.03;4972010;28;45629;-77
2022/08/11 08:58:38;;;;;;;;;5.25;4.50;;;;;44.31;13.37;101028.66;4973939;28;45391;-76
2022/08/11 09:01:05;;;;;;;;;4.25;4.25;;;;;44.43;13.65;101030.56;4973303;28;45423;-75
2022/08/11 09:03:35;;;;;;;;;4.00;4.00;;;;;44.27;12.84;101038.59;4976974;28;45716;-75
2022/08/11 09:06:01;;;;;;;;;3.75;3.75;;;;;44.03;12.82;101034.94;4984154;28;45664;-76
2022/08/11 09:08:30;;;;;;;;;3.50;3.50;;;;;43.74;12.92;101034.78;4981072;28;45557;-76
2022/08/11 09:13:43;;;;;;;;;5.25;5.25;;;;;43.98;13.18;101032.06;4979277;28;45670;-75
2022/08/11 09:16:11;;;;;;;;;4.25;4.25;;;;;44.12;13.84;101029.88;4981801;28;45512;-75
2022/08/11 09:18:37;;;;;;;;;3.00;3.00;;;;;43.61;12.38;101027.53;4982211;28;45389;-77
2022/08/11 09:21:04;;;;;;;;;3.50;3.50;;;;;43.52;13.25;101033.66;4973432;28;45444;-75
2022/08/11 09:29:01;;;;;;;;;4.25;4.25;;;;;43.52;13.48;101019.78;4983896;28;45417;-74
2022/08/11 09:31:32;;;;;;;;;5.00;5.00;;;;;43.27;12.76;101009.66;4973169;28;45489;-76
2022/08/11 09:33:58;;;;;;;;;4.00;4.00;;;;;43.40;14.11;101016.97;4975390;28;47195;-77
2022/08/11 09:41:54;;;;;;;;;3.00;3.00;;;;;43.31;13.48;101008.13;4973325;28;45482;-76
2022/08/11 09:47:11;;;;;;;;;4.00;4.00;;;;;42.59;14.15;101011.66;4970706;28;45547;-76
2022/08/11 09:49:38;;;;;;;;;7.00;7.00;;;;;42.29;12.70;101006.91;4984318;28;45471;-74
2022/08/11 09:52:08;;;;;;;;;6.00;5.75;;;;;42.06;13.72;101010.28;4978320;28;45414;-86
2022/08/11 09:54:33;;;;;;;;;5.00;5.00;;;;;42.23;13.65;101002.28;4975968;28;45721;-76
2022/08/11 09:59:43;;;;;;;;;5.00;5.00;;;;;41.96;13.92;101010.00;4976911;28;45509;-75
2022/08/11 10:02:09;;;;;;;;;6.50;6.25;;;;;42.09;13.98;101009.84;5000734;28;45507;-75
2022/08/11 10:04:45;;;;;;;;;5.75;5.75;;;;;42.46;13.36;101001.56;4976422;28;45470;-77
2022/08/11 10:07:17;;;;;;;;;6.00;6.00;;;;;42.64;13.13;100999.84;4978413;28;45551;-75
2022/08/11 10:09:58;;;;;;;;;5.50;5.00;;;;;42.58;12.45;100996.94;4992454;28;45520;-76
2022/08/11 10:12:32;;;;;;;;;6.00;5.50;;;;;42.49;13.82;100995.53;4979727;28;45469;-76
2022/08/11 10:15:37;;;;;;;;;6.00;6.00;;;;;42.58;14.61;100996.94;4975424;28;45460;-76
2022/08/11 10:21:05;;;;;;;;;6.50;5.75;;;;;42.54;13.25;100981.78;4987867;28;45560;-76
2022/08/11 10:33:58;;;;;;;;;6.50;6.00;;;;;41.34;13.08;100971.91;4975027;28;45409;-75
2022/08/11 10:34:42;;;;;;;;;6.00;6.00;;;;;40.66;13.71;100993.59;4966683;28;45464;-75
2022/08/11 10:37:08;;;;;;;;;7.25;7.25;;;;;40.41;13.52;100973.25;4976476;28;45397;-73
2022/08/11 10:39:36;;;;;;;;;6.50;6.50;;;;;40.28;14.28;100979.66;5003963;28;45511;-75
2022/08/11 10:44:51;;;;;;;;;6.25;6.25;;;;;40.23;14.53;100968.41;4977746;28;45448;-74
2022/08/11 10:47:35;;;;;;;;;6.00;6.00;;;;;40.02;14.65;100962.06;4970521;28;46899;-76
2022/08/11 11:01:05;;;;;;;;;6.75;6.75;;;;;40.21;14.29;100931.78;4970262;28;45446;-73
2022/08/11 11:03:35;;;;;;;;;6.25;6.25;;;;;39.92;14.20;100967.16;4979474;28;45592;-75
2022/08/11 11:06:24;;;;;;;;;6.75;6.50;;;;;39.68;13.86;100957.66;4975167;28;45587;-74
2022/08/11 11:08:55;;;;;;;;;6.25;6.25;;;;;39.47;14.69;100942.13;4974973;28;46180;-74
2022/08/11 11:17:54;;;;;;;;;8.25;6.50;;;;;39.62;14.10;100940.84;4977619;28;45433;-73
2022/08/11 11:19:43;;;;;;;;;7.50;7.50;;;;;39.89;14.35;100928.88;4973612;28;45646;-74
2022/08/11 11:25:16;;;;;;;;;9.25;8.25;;;;;39.82;14.48;100923.38;4970292;28;45499;-73
2022/08/11 11:27:54;;;;;;;;;8.50;8.50;;;;;40.04;14.13;100918.47;4972271;28;45589;-73
2022/08/11 11:30:20;;;;;;;;;8.00;8.00;;;;;40.52;14.85;100917.22;4974666;28;45469;-82
2022/08/11 11:33:03;;;;;;;;;9.75;8.50;;;;;40.61;13.70;100912.28;4974051;28;45527;-75
2022/08/11 11:35:58;;;;;;;;;8.00;8.00;;;;;40.37;13.35;100913.84;4975037;28;45356;-76
2022/08/11 11:38:24;;;;;;;;;9.25;9.25;;;;;40.33;13.42;100919.00;4917968;28;45715;-76
2022/08/11 11:41:23;;;;;;;;;7.50;7.25;;;;;39.70;14.04;100898.28;4925623;28;46189;-76
2022/08/11 11:43:36;;;;;;;;;8.50;8.50;;;;;39.44;14.38;100911.06;4913258;28;45465;-75
2022/08/11 11:46:05;;;;;;;;;7.75;6.75;;;;;39.37;14.87;100932.34;4918102;28;45542;-75
2022/08/11 11:48:31;;;;;;;;;8.00;8.00;;;;;38.95;14.48;100914.19;4919982;28;45519;-75
2022/08/11 11:50:58;;;;;;;;;7.50;7.50;;;;;38.64;14.71;100924.75;4919564;28;45657;-76
2022/08/11 11:53:24;;;;;;;;;8.50;8.50;;;;;38.39;15.15;100911.47;4920327;28;45615;-76
2022/08/11 11:55:50;;;;;;;;;8.50;7.50;;;;;38.51;15.31;100900.72;4923257;28;45410;-75
2022/08/11 12:01:18;;;;;;;;;8.25;8.25;;;;;38.52;15.83;100907.06;4918415;28;45866;-75
2022/08/11 12:03:48;;;;;;;;;9.00;8.00;;;;;38.26;15.17;100905.91;4926791;28;45466;-76
2022/08/11 12:06:15;;;;;;;;;7.00;7.00;;;;;38.32;15.58;100891.28;4921929;28;45871;-75
2022/08/11 12:08:42;;;;;;;;;8.00;8.00;;;;;38.51;15.14;100888.81;4920265;28;45435;-75
2022/08/11 12:13:58;;;;;;;;;6.50;6.50;;;;;37.63;15.62;100897.69;4926455;28;45681;-75
2022/08/11 12:16:24;;;;;;;;;6.00;6.00;;;;;37.05;15.57;100900.56;4967522;28;45522;-74
2022/08/11 12:18:55;;;;;;;;;9.00;9.00;;;;;36.52;16.77;100898.06;4975897;28;45575;-73
2022/08/11 12:21:22;;;;;;;;;11.25;8.75;;;;;36.00;16.80;100908.19;4973626;28;46187;-75
2022/08/11 12:29:16;;;;;;;;;8.75;8.50;;;;;35.51;17.70;100887.56;4972694;28;45599;-74
2022/08/11 12:31:42;;;;;;;;;8.50;8.50;;;;;35.39;17.22;100890.78;4974754;28;45499;-75
2022/08/11 12:34:10;;;;;;;;;10.00;9.00;;;;;35.44;17.89;100871.00;4969925;28;45499;-76
2022/08/11 12:36:39;;;;;;;;;9.50;8.50;;;;;35.43;17.65;100863.78;4977146;28;45507;-75
2022/08/11 12:39:08;;;;;;;;;10.25;10.25;;;;;35.18;17.27;100898.81;4973135;28;45403;-75
2022/08/11 12:47:08;;;;;;;;;10.00;8.25;;;;;34.62;17.95;100866.97;4973885;28;45533;-74
2022/08/11 12:52:32;;;;;;;;;7.50;7.00;;;;;34.52;18.42;100848.00;4971570;28;45906;-75
2022/08/11 12:55:05;;;;;;;;;6.75;6.75;;;;;34.57;18.60;100868.53;4966938;28;45473;-75
2022/08/11 13:05:55;;;;;;;;;6.75;6.75;;;;;34.12;18.73;100855.41;4978593;28;45522;-75
2022/08/11 13:08:23;;;;;;;;;8.00;8.00;;;;;34.21;18.56;100860.81;4972925;28;45522;-75
2022/08/11 13:13:38;;;;;;;;;7.00;6.25;;;;;33.95;18.40;100849.13;4968462;28;45522;-75
2022/08/11 13:16:05;;;;;;;;;7.25;6.25;;;;;33.86;17.96;100852.06;4968146;28;45759;-74
2022/08/11 13:18:33;;;;;;;;;8.50;8.50;;;;;33.80;18.26;100857.25;4972948;28;45601;-76
2022/08/11 13:20:59;;;;;;;;;8.00;8.00;;;;;33.81;18.57;100853.47;4970586;28;45732;-75
2022/08/11 13:23:28;;;;;;;;;9.00;9.00;;;;;33.81;18.64;100856.22;4971369;28;45460;-75
2022/08/11 13:25:54;;;;;;;;;7.50;6.50;;;;;33.63;18.70;100855.53;4970718;28;45769;-76
2022/08/11 13:28:22;;;;;;;;;8.25;8.25;;;;;33.43;19.04;100866.03;4966136;28;45456;-76
2022/08/11 13:33:40;;;;;;;;;9.00;9.00;;;;;33.30;19.35;100855.63;4965081;28;45383;-75
2022/08/11 13:36:06;;;;;;;;;8.00;8.00;;;;;33.14;19.64;100852.84;4966125;28;45479;-77
2022/08/11 13:38:33;;;;;;;;;6.00;6.00;;;;;33.10;20.03;100855.94;4970202;28;45440;-77
2022/08/11 13:41:00;;;;;;;;;7.25;6.00;;;;;33.10;19.67;100827.69;4969962;28;45580;-76
2022/08/11 13:43:26;;;;;;;;;6.25;6.25;;;;;33.11;19.55;100818.47;4975754;28;46182;-76
2022/08/11 13:46:17;;;;;;;;;8.50;8.50;;;;;32.97;19.66;100830.13;4972625;28;45403;-76
2022/08/11 13:48:40;;;;;;;;;10.75;10.75;;;;;32.93;19.52;100821.38;4974377;28;45415;-76
2022/08/11 13:53:51;;;;;;;;;8.00;8.00;;;;;33.12;19.75;100837.44;4968408;28;45930;-76
2022/08/11 13:56:18;;;;;;;;;10.75;10.75;;;;;33.06;19.87;100827.19;4974065;28;45392;-77
2022/08/11 13:58:44;;;;;;;;;8.00;8.00;;;;;32.97;19.86;100817.28;4972835;28;45571;-76
2022/08/11 14:01:10;;;;;;;;;8.25;8.25;;;;;33.04;20.16;100826.53;4969773;28;45546;-75
2022/08/11 14:03:41;;;;;;;;;8.50;8.50;;;;;33.15;20.01;100828.06;4975339;28;46282;-75
2022/08/11 14:06:08;;;;;;;;;11.00;10.50;;;;;33.17;19.77;100825.13;4970042;28;45401;-74
2022/08/11 14:08:37;;;;;;;;;9.00;9.00;;;;;33.15;19.74;100819.84;4973820;28;45528;-75
2022/08/11 14:13:51;;;;;;;;;8.50;8.25;;;;;33.00;19.21;100827.03;4982818;28;45552;-75
2022/08/11 14:16:27;;;;;;;;;10.75;9.75;;;;;32.88;19.72;100823.78;4979002;28;45371;-75
2022/08/11 14:18:56;;;;;;;;;8.00;8.00;;;;;32.84;19.94;100836.09;4981247;28;45392;-75
2022/08/11 14:24:10;;;;;;;;;9.00;7.25;;;;;32.62;19.74;100812.97;4979323;28;45513;-75
2022/08/11 14:26:37;;;;;;;;;9.50;9.50;;;;;32.61;19.59;100805.78;4977359;28;45381;-75
2022/08/11 14:29:07;;;;;;;;;9.00;7.75;;;;;32.62;19.83;100799.31;4978281;28;45493;-75
2022/08/11 14:31:36;;;;;;;;;10.00;10.00;;;;;32.70;20.59;100797.44;4976202;28;45439;-75
2022/08/11 14:34:05;;;;;;;;;7.00;5.00;;;;;32.70;20.91;100791.97;4974589;28;46187;-75
2022/08/11 14:36:34;;;;;;;;;8.00;8.00;;;;;32.68;20.88;100791.28;4973819;28;45508;-74
2022/08/11 14:39:04;;;;;;;;;11.00;9.50;;;;;32.70;20.54;100800.16;4974204;28;45626;-76
2022/08/11 14:47:04;;;;;;;;;10.00;10.00;;;;;32.63;20.61;100788.19;4979246;28;45885;-76
2022/08/11 14:49:35;;;;;;;;;10.00;10.00;;;;;32.56;20.48;100770.75;4979404;28;45518;-75
2022/08/11 14:52:08;;;;;;;;;12.75;11.00;;;;;32.64;20.28;100770.72;4972231;28;45371;-73
2022/08/11 14:57:20;;;;;;;;;11.50;11.50;;;;;32.59;20.51;100765.78;4984498;28;45683;-75
2022/08/11 14:59:48;;;;;;;;;8.00;8.00;;;;;32.61;20.24;100759.28;4984974;28;45546;-74
2022/08/11 15:05:01;;;;;;;;;12.75;11.00;;;;;32.53;20.41;100757.41;4979534;28;45759;-75
2022/08/11 15:07:30;;;;;;;;;8.25;8.00;;;;;32.53;20.17;100765.63;4985267;28;45414;-76
2022/08/11 15:10:02;;;;;;;;;7.50;7.50;;;;;32.66;20.13;100759.66;4986746;28;45611;-77
2022/08/11 15:12:30;;;;;;;;;12.00;11.00;;;;;32.79;19.90;100750.94;4999843;28;45545;-76
2022/08/11 15:17:42;;;;;;;;;11.00;10.00;;;;;32.72;19.91;100759.84;4979037;28;45470;-76
2022/08/11 15:25:57;;;;;;;;;7.75;7.75;;;;;32.74;20.29;100746.84;4983191;28;45395;-74
2022/08/11 15:39:33;;;;;;;;;10.00;10.00;;;;;32.68;20.16;100733.84;4974862;28;45534;-76
2022/08/11 15:47:47;;;;;;;;;12.50;12.50;;;;;32.71;20.28;100735.41;4975610;28;45434;-76
2022/08/11 15:50:17;;;;;;;;;10.00;9.00;;;;;32.74;19.79;100735.06;4975658;28;45490;-75
2022/08/11 15:52:51;;;;;;;;;10.00;10.00;;;;;32.75;19.98;100734.00;4977259;28;45442;-74
2022/08/11 15:55:18;;;;;;;;;8.75;8.75;;;;;32.79;19.73;100731.78;4973990;28;45478;-75
2022/08/11 16:06:02;;;;;;;;;11.75;11.75;;;;;32.71;20.43;100717.09;4974018;28;45493;-77
2022/08/11 16:08:31;;;;;;;;;8.25;8.25;;;;;32.70;20.19;100720.00;4973672;28;45682;-77
2022/08/11 16:10:57;;;;;;;;;10.75;10.00;;;;;32.68;20.06;100733.00;4973926;28;45510;-75
2022/08/11 16:18:42;;;;;;;;;11.00;11.00;;;;;32.47;20.12;100720.66;4973390;28;45479;-76
2022/08/11 16:21:10;;;;;;;;;12.25;11.25;;;;;32.45;20.34;100736.38;4974242;28;45554;-76
2022/08/11 16:23:39;;;;;;;;;9.50;9.50;;;;;32.41;20.21;100722.19;4971503;28;45464;-76
2022/08/11 16:26:06;;;;;;;;;9.00;9.00;;;;;32.38;20.19;100719.78;4969794;28;45533;-74
2022/08/11 16:28:33;;;;;;;;;10.75;10.75;;;;;32.21;20.16;100690.75;4972941;28;45983;-74
2022/08/11 16:31:00;;;;;;;;;11.00;11.00;;;;;32.32;20.28;100720.47;4972291;28;45463;-75
2022/08/11 16:33:27;;;;;;;;;9.50;9.50;;;;;32.34;20.38;100712.09;4977136;28;45475;-75
2022/08/11 16:38:40;;;;;;;;;11.25;9.50;;;;;32.28;20.35;100710.91;4973517;28;45833;-75
2022/08/11 16:41:12;;;;;;;;;9.75;9.75;;;;;32.31;20.66;100702.38;4973384;28;45539;-74
2022/08/11 16:49:20;;;;;;;;;10.00;9.25;;;;;32.28;20.72;100697.25;4973783;28;45423;-75
2022/08/11 16:51:46;;;;;;;;;9.25;9.25;;;;;32.28;20.83;100697.25;4972910;28;45404;-75
2022/08/11 16:54:13;;;;;;;;;9.50;9.50;;;;;32.25;20.83;100700.34;4979773;28;45411;-75
2022/08/11 16:56:52;;;;;;;;;9.75;9.50;;;;;32.20;20.73;100699.97;4963536;28;45483;-75
2022/08/11 16:59:32;;;;;;;;;8.75;8.00;;;;;32.18;20.81;100696.56;4973373;28;46342;-74
2022/08/11 17:13:07;;;;;;;;;10.50;10.50;;;;;32.06;20.71;100687.78;4973353;28;45394;-75
2022/08/11 17:13:54;;;;;;;;;12.50;11.50;;;;;31.97;20.85;100694.25;4972990;28;45415;-75
2022/08/11 17:16:24;;;;;;;;;11.50;11.00;;;;;31.97;21.17;100686.06;4972205;28;45481;-77